createdAt,value
2023-03-13T00:01:35.891Z,99.90
2023-03-13T00:04:39.053Z,99.90
2023-03-13T00:07:42.165Z,99.90
2023-03-13T00:10:45.578Z,99.90
2023-03-13T00:13:48.768Z,99.90
2023-03-13T00:16:51.791Z,99.90
2023-03-13T00:19:56.162Z,99.90
2023-03-13T00:22:59.254Z,99.90
2023-03-13T00:26:05.411Z,99.90
2023-03-13T00:29:08.606Z,99.90
2023-03-13T00:32:11.871Z,99.90
2023-03-13T00:35:16.241Z,99.90
2023-03-13T00:38:19.410Z,99.90
2023-03-13T00:41:27.624Z,99.90
2023-03-13T00:44:30.821Z,99.90
2023-03-13T00:47:33.904Z,99.90
2023-03-13T00:50:37.163Z,99.90
2023-03-13T00:53:40.802Z,99.90
2023-03-13T00:56:43.792Z,99.90
2023-03-13T00:59:47.081Z,99.90
2023-03-13T01:02:50.396Z,99.90
2023-03-13T01:06:02.381Z,99.90
2023-03-13T01:09:07.625Z,99.90
2023-03-13T01:12:10.615Z,99.90
2023-03-13T01:15:13.899Z,99.80
2023-03-13T01:18:16.897Z,99.90
2023-03-13T01:21:22.241Z,99.90
2023-03-13T01:24:25.094Z,99.90
2023-03-13T01:27:32.418Z,99.90
2023-03-13T01:30:35.610Z,98.90
2023-03-13T01:33:38.705Z,98.00
2023-03-13T01:36:41.991Z,97.20
2023-03-13T01:39:45.087Z,97.60
2023-03-13T01:43:00.091Z,96.30
2023-03-13T01:46:05.426Z,95.90
2023-03-13T01:49:13.297Z,95.30
2023-03-13T01:52:28.267Z,95.00
2023-03-13T01:55:31.453Z,95.40
2023-03-13T01:58:35.272Z,95.20
2023-03-13T02:01:39.075Z,96.10
2023-03-13T02:04:49.538Z,97.00
2023-03-13T02:08:01.636Z,96.60
2023-03-13T02:11:28.082Z,96.80
2023-03-13T02:14:35.162Z,96.20
2023-03-13T02:17:39.886Z,96.40
2023-03-13T02:20:43.387Z,96.50
2023-03-13T02:23:57.125Z,96.30
2023-03-13T02:27:00.071Z,96.20
2023-03-13T02:30:05.352Z,96.00
2023-03-13T02:33:08.340Z,96.10
2023-03-13T02:36:14.507Z,96.00
2023-03-13T02:39:20.769Z,96.20
2023-03-13T02:42:24.784Z,96.30
2023-03-13T02:45:28.277Z,96.50
2023-03-13T02:48:40.586Z,96.20
2023-03-13T02:51:46.849Z,96.40
2023-03-13T02:54:53.425Z,96.40
2023-03-13T02:57:56.214Z,96.30
2023-03-13T03:01:08.020Z,96.50
2023-03-13T03:04:11.810Z,96.70
2023-03-13T03:07:14.901Z,97.10
2023-03-13T03:10:19.021Z,96.90
2023-03-13T03:13:22.008Z,97.00
2023-03-13T03:16:25.070Z,97.00
2023-03-13T03:19:28.195Z,97.40
2023-03-13T03:22:31.171Z,97.30
2023-03-13T03:25:34.166Z,97.30
2023-03-13T03:28:37.260Z,97.30
2023-03-13T03:31:40.915Z,97.60
2023-03-13T03:34:43.934Z,97.40
2023-03-13T03:37:47.129Z,97.10
2023-03-13T03:40:50.831Z,96.90
2023-03-13T03:43:54.025Z,97.20
2023-03-13T03:46:57.364Z,97.80
2023-03-13T03:50:00.920Z,97.50
2023-03-13T03:53:04.230Z,97.90
2023-03-13T03:56:08.331Z,97.40
2023-03-13T03:59:11.526Z,98.20
2023-03-13T04:02:14.702Z,98.80
2023-03-13T04:05:17.819Z,99.10
2023-03-13T04:08:21.109Z,98.80
2023-03-13T04:11:25.091Z,99.50
2023-03-13T04:14:28.312Z,99.10
2023-03-13T04:17:31.504Z,99.90
2023-03-13T04:20:36.641Z,99.20
2023-03-13T04:23:39.630Z,98.70
2023-03-13T04:26:42.825Z,97.90
2023-03-13T04:29:45.913Z,97.10
2023-03-13T04:32:51.506Z,97.00
2023-03-13T04:35:54.690Z,96.90
2023-03-13T04:38:57.844Z,96.80
2023-03-13T04:42:01.650Z,97.00
2023-03-13T04:45:04.653Z,97.00
2023-03-13T04:48:07.941Z,96.10
2023-03-13T04:51:11.747Z,96.40
2023-03-13T04:54:15.451Z,96.60
2023-03-13T04:57:18.638Z,97.50
2023-03-13T05:00:22.144Z,98.00
2023-03-13T05:03:25.435Z,98.10
2023-03-13T05:06:28.436Z,98.80
2023-03-13T05:09:31.506Z,99.90
2023-03-13T05:12:34.713Z,99.90
2023-03-13T05:15:37.918Z,99.90
2023-03-13T05:18:41.298Z,99.90
2023-03-13T05:21:43.985Z,99.90
2023-03-13T05:24:47.170Z,99.90
2023-03-13T05:27:50.365Z,99.90
2023-03-13T05:30:54.288Z,99.90
2023-03-13T05:33:57.158Z,99.90
2023-03-13T05:37:00.352Z,99.90
2023-03-13T05:40:04.592Z,99.90
2023-03-13T05:43:07.760Z,99.90
2023-03-13T05:46:11.186Z,99.40
2023-03-13T05:49:14.465Z,98.50
2023-03-13T05:52:17.440Z,99.30
2023-03-13T05:55:21.243Z,99.90
2023-03-13T05:58:24.536Z,99.90
2023-03-13T06:01:27.731Z,99.90
2023-03-13T06:04:31.906Z,99.90
2023-03-13T06:07:35.228Z,98.70
2023-03-13T06:10:38.225Z,99.00
2023-03-13T06:13:41.109Z,97.40
2023-03-13T06:16:44.419Z,95.70
2023-03-13T06:19:47.904Z,93.90
2023-03-13T06:22:53.760Z,93.50
2023-03-13T06:25:56.782Z,94.40
2023-03-13T06:28:59.742Z,92.20
2023-03-13T06:32:03.694Z,92.90
2023-03-13T06:35:07.248Z,90.00
2023-03-13T06:38:11.165Z,87.10
2023-03-13T06:41:14.355Z,90.60
2023-03-13T06:44:17.555Z,84.90
2023-03-13T06:47:20.626Z,83.60
2023-03-13T06:50:24.746Z,85.40
2023-03-13T06:53:29.068Z,80.70
2023-03-13T06:56:32.678Z,79.90
2023-03-13T06:59:35.759Z,77.70
2023-03-13T07:02:38.871Z,74.60
2023-03-13T07:05:42.264Z,74.30
2023-03-13T07:08:45.959Z,64.60
2023-03-13T07:11:49.554Z,62.20
2023-03-13T07:14:52.863Z,62.40
2023-03-13T07:17:58.915Z,63.40
2023-03-13T07:21:06.820Z,65.70
2023-03-13T07:24:10.493Z,60.00
2023-03-13T07:27:14.300Z,49.60
2023-03-13T07:30:17.945Z,51.60
2023-03-13T07:33:21.141Z,46.50
2023-03-13T07:36:24.824Z,53.80
2023-03-13T07:39:28.119Z,49.20
2023-03-13T07:42:31.526Z,43.00
2023-03-13T07:45:34.567Z,42.90
2023-03-13T07:48:40.171Z,42.50
2023-03-13T07:51:44.502Z,41.30
2023-03-13T07:54:47.890Z,39.00
2023-03-13T07:57:50.767Z,38.70
2023-03-13T08:00:54.682Z,37.90
2023-03-13T08:03:58.991Z,36.20
2023-03-13T08:07:01.983Z,35.00
2023-03-13T08:10:05.380Z,34.20
2023-03-13T08:13:08.994Z,33.60
2023-03-13T08:16:14.759Z,32.50
2023-03-13T08:19:17.630Z,30.20
2023-03-13T08:22:21.222Z,32.80
2023-03-13T08:25:24.313Z,32.40
2023-03-13T08:28:27.476Z,30.80
2023-03-13T08:31:35.719Z,31.40
2023-03-13T08:34:39.629Z,30.70
2023-03-13T08:37:42.920Z,27.70
2023-03-13T08:40:47.140Z,29.40
2023-03-13T08:43:52.478Z,30.00
2023-03-13T08:46:55.782Z,29.30
2023-03-13T08:49:58.875Z,31.60
2023-03-13T08:53:02.904Z,29.30
2023-03-13T08:56:07.409Z,31.10
2023-03-13T08:59:11.325Z,30.50
2023-03-13T09:02:20.370Z,30.90
2023-03-13T09:05:23.553Z,29.30
2023-03-13T09:08:27.461Z,28.30
2023-03-13T09:11:30.970Z,27.80
2023-03-13T09:14:36.598Z,29.10
2023-03-13T09:17:39.592Z,32.30
2023-03-13T09:20:44.438Z,30.30
2023-03-13T09:23:47.833Z,31.10
2023-03-13T09:27:00.681Z,28.80
2023-03-13T09:30:04.764Z,29.40
2023-03-13T09:33:08.262Z,29.10
2023-03-13T09:36:12.297Z,30.30
2023-03-13T09:39:15.271Z,29.80
2023-03-13T09:42:21.840Z,29.20
2023-03-13T09:45:35.380Z,29.20
2023-03-13T09:48:49.222Z,29.40
2023-03-13T09:52:10.437Z,28.70
2023-03-13T09:55:33.605Z,31.10
2023-03-13T09:58:36.475Z,29.50
2023-03-13T10:01:41.732Z,28.60
2023-03-13T10:04:54.108Z,27.80
2023-03-13T10:08:22.623Z,30.00
2023-03-13T10:11:38.719Z,29.10
2023-03-13T10:15:12.215Z,28.10
2023-03-13T10:18:22.494Z,28.30
2023-03-13T10:21:36.630Z,28.10
2023-03-13T10:24:49.961Z,28.50
2023-03-13T10:27:54.077Z,28.60
2023-03-13T10:31:32.343Z,28.60
2023-03-13T10:34:56.687Z,27.90
2023-03-13T10:38:05.000Z,28.90
2023-03-13T10:41:35.940Z,27.40
2023-03-13T10:44:39.473Z,28.30
2023-03-13T10:47:42.534Z,28.60
2023-03-13T10:50:48.710Z,28.80
2023-03-13T10:53:51.993Z,29.10
2023-03-13T10:57:19.469Z,32.60
2023-03-13T11:00:40.173Z,31.30
2023-03-13T11:03:43.949Z,29.10
2023-03-13T11:06:55.150Z,30.40
2023-03-13T11:10:00.568Z,30.50
2023-03-13T11:13:04.302Z,32.80
2023-03-13T11:16:24.537Z,30.70
2023-03-13T11:19:36.712Z,29.70
2023-03-13T11:23:07.343Z,31.10
2023-03-13T11:26:12.889Z,30.50
2023-03-13T11:29:50.073Z,29.60
2023-03-13T11:33:01.331Z,30.60
2023-03-13T11:36:34.155Z,30.20
2023-03-13T11:40:03.147Z,31.50
2023-03-13T11:43:25.103Z,32.50
2023-03-13T11:46:35.530Z,30.20
2023-03-13T11:49:55.742Z,30.30
2023-03-13T11:53:18.316Z,31.40
2023-03-13T11:56:32.849Z,31.70
2023-03-13T11:59:56.424Z,34.40
2023-03-13T12:03:14.886Z,32.50
2023-03-13T12:06:28.704Z,34.30
2023-03-13T12:09:40.201Z,34.10
2023-03-13T12:12:52.103Z,30.50
2023-03-13T12:15:59.307Z,30.90
2023-03-13T12:19:03.406Z,32.10
2023-03-13T12:22:36.094Z,32.60
2023-03-13T12:26:04.061Z,30.70
2023-03-13T12:29:34.910Z,33.40
2023-03-13T12:32:40.683Z,31.80
2023-03-13T12:35:49.725Z,32.00
2023-03-13T12:38:58.930Z,33.10
2023-03-13T12:42:14.614Z,32.70
2023-03-13T12:45:20.566Z,31.20
2023-03-13T12:48:44.763Z,32.40
2023-03-13T12:52:14.786Z,31.20
2023-03-13T12:55:32.101Z,32.80
2023-03-13T12:59:10.945Z,32.60
2023-03-13T13:02:20.893Z,32.20
2023-03-13T13:05:24.186Z,31.90
2023-03-13T13:08:31.904Z,32.30
2023-03-13T13:11:35.513Z,31.60
2023-03-13T13:14:50.776Z,31.20
2023-03-13T13:18:15.593Z,32.20
2023-03-13T13:21:18.656Z,32.10
2023-03-13T13:24:51.140Z,34.20
2023-03-13T13:27:54.341Z,30.90
2023-03-13T13:30:58.053Z,32.20
2023-03-13T13:34:01.230Z,32.00
2023-03-13T13:37:24.507Z,33.10
2023-03-13T13:40:30.762Z,31.80
2023-03-13T13:43:40.716Z,33.20
2023-03-13T13:46:47.178Z,32.20
2023-03-13T13:50:00.417Z,33.40
2023-03-13T13:53:32.588Z,32.10
2023-03-13T13:56:49.875Z,32.80
2023-03-13T14:00:20.246Z,32.30
2023-03-13T14:03:26.093Z,34.00
2023-03-13T14:06:32.268Z,32.10
2023-03-13T14:09:37.249Z,32.20
2023-03-13T14:12:55.047Z,33.60
2023-03-13T14:15:58.681Z,32.70
2023-03-13T14:19:01.952Z,33.00
2023-03-13T14:22:07.806Z,33.40
2023-03-13T14:25:10.904Z,32.60
2023-03-13T14:28:21.154Z,32.40
2023-03-13T14:31:31.464Z,32.50
2023-03-13T14:34:34.610Z,32.20
2023-03-13T14:37:43.332Z,32.00
2023-03-13T14:40:48.062Z,32.90
2023-03-13T14:43:51.359Z,32.70
2023-03-13T14:46:59.848Z,34.00
2023-03-13T14:50:09.520Z,34.00
2023-03-13T14:53:19.369Z,35.40
2023-03-13T14:56:35.481Z,35.40
2023-03-13T14:59:38.504Z,34.70
2023-03-13T15:02:43.394Z,34.90
2023-03-13T15:05:51.909Z,34.30
2023-03-13T15:09:16.804Z,32.60
2023-03-13T15:12:23.280Z,32.90
2023-03-13T15:15:26.480Z,33.20
2023-03-13T15:18:33.053Z,34.00
2023-03-13T15:21:36.452Z,34.40
2023-03-13T15:24:39.641Z,34.40
2023-03-13T15:27:42.639Z,35.00
2023-03-13T15:30:48.488Z,33.40
2023-03-13T15:33:58.336Z,34.20
2023-03-13T15:37:01.429Z,33.40
2023-03-13T15:40:14.044Z,33.10
2023-03-13T15:43:18.875Z,33.10
2023-03-13T15:46:22.309Z,33.30
2023-03-13T15:49:25.571Z,33.70
2023-03-13T15:52:30.003Z,33.70
2023-03-13T15:55:33.189Z,34.70
2023-03-13T15:58:37.720Z,35.10
2023-03-13T16:01:41.487Z,35.40
2023-03-13T16:04:45.829Z,35.30
2023-03-13T16:07:48.834Z,36.30
2023-03-13T16:10:53.768Z,36.20
2023-03-13T16:13:57.676Z,35.70
2023-03-13T16:17:02.459Z,36.20
2023-03-13T16:20:12.973Z,37.10
2023-03-13T16:23:17.301Z,38.00
2023-03-13T16:26:23.244Z,38.30
2023-03-13T16:29:26.448Z,39.40
2023-03-13T16:32:29.765Z,39.20
2023-03-13T16:35:33.727Z,39.40
2023-03-13T16:38:36.744Z,41.00
2023-03-13T16:41:39.934Z,41.20
2023-03-13T16:44:43.238Z,46.20
2023-03-13T16:47:46.836Z,44.90
2023-03-13T16:50:50.438Z,48.30
2023-03-13T16:53:56.298Z,53.90
2023-03-13T16:57:02.557Z,65.20
2023-03-13T17:00:15.280Z,74.60
2023-03-13T17:03:18.470Z,75.50
2023-03-13T17:06:27.810Z,85.30
2023-03-13T17:09:31.208Z,91.70
2023-03-13T17:12:34.254Z,92.40
2023-03-13T17:15:38.755Z,92.20
2023-03-13T17:18:43.450Z,93.80
2023-03-13T17:21:46.854Z,94.00
2023-03-13T17:24:50.456Z,94.40
2023-03-13T17:27:54.873Z,89.50
2023-03-13T17:30:58.703Z,83.60
2023-03-13T17:34:04.327Z,88.80
2023-03-13T17:37:16.762Z,84.70
2023-03-13T17:40:28.236Z,74.90
2023-03-13T17:43:31.727Z,71.60
2023-03-13T17:46:38.177Z,78.50
2023-03-13T17:49:41.286Z,78.10
2023-03-13T17:52:44.604Z,72.00
2023-03-13T17:55:47.775Z,63.30
2023-03-13T17:58:54.653Z,62.40
2023-03-13T18:02:01.471Z,57.70
2023-03-13T18:05:05.343Z,55.40
2023-03-13T18:08:11.917Z,53.60
2023-03-13T18:11:17.777Z,52.20
2023-03-13T18:14:22.809Z,49.50
2023-03-13T18:17:32.556Z,49.80
2023-03-13T18:20:37.797Z,48.50
2023-03-13T18:23:41.605Z,48.40
2023-03-13T18:26:47.566Z,47.70
2023-03-13T18:29:51.173Z,47.80
2023-03-13T18:32:55.443Z,48.40
2023-03-13T18:36:04.039Z,48.60
2023-03-13T18:39:13.856Z,48.10
2023-03-13T18:42:18.894Z,47.60
2023-03-13T18:45:24.968Z,47.30
2023-03-13T18:48:28.965Z,47.30
2023-03-13T18:51:32.986Z,48.20
2023-03-13T18:54:37.184Z,48.10
2023-03-13T18:57:41.104Z,47.90
2023-03-13T19:00:48.009Z,47.90
2023-03-13T19:03:55.589Z,48.20
2023-03-13T19:07:00.527Z,48.70
2023-03-13T19:10:05.329Z,48.60
2023-03-13T19:13:09.366Z,48.40
2023-03-13T19:16:40.670Z,49.10
2023-03-13T19:19:44.834Z,48.40
2023-03-13T19:22:49.578Z,49.40
2023-03-13T19:25:54.192Z,49.40
2023-03-13T19:28:59.537Z,51.20
2023-03-13T19:32:08.471Z,51.60
2023-03-13T19:35:13.812Z,50.60
2023-03-13T19:38:19.872Z,50.10
2023-03-13T19:41:23.981Z,51.10
2023-03-13T19:44:29.116Z,50.70
2023-03-13T19:47:32.924Z,49.90
2023-03-13T19:50:37.144Z,50.20
2023-03-13T19:53:41.572Z,51.20
2023-03-13T19:56:51.410Z,51.00
2023-03-13T19:59:56.632Z,50.80
2023-03-13T20:03:00.702Z,50.10
2023-03-13T20:06:04.883Z,50.50
2023-03-13T20:09:14.120Z,51.10
2023-03-13T20:12:17.927Z,50.80
2023-03-13T20:15:22.668Z,50.40
2023-03-13T20:18:26.570Z,50.70
2023-03-13T20:21:36.627Z,50.40
2023-03-13T20:24:41.049Z,49.40
2023-03-13T20:27:45.369Z,50.00
2023-03-13T20:30:52.269Z,50.20
2023-03-13T20:33:57.077Z,49.60
2023-03-13T20:37:02.353Z,50.10
2023-03-13T20:40:07.867Z,50.30
2023-03-13T20:43:13.827Z,50.50
2023-03-13T20:46:24.752Z,50.50
2023-03-13T20:49:30.962Z,49.40
2023-03-13T20:52:35.283Z,47.90
2023-03-13T20:55:42.268Z,48.70
2023-03-13T20:58:46.383Z,49.50
2023-03-13T21:01:50.635Z,47.20
2023-03-13T21:04:55.257Z,47.80
2023-03-13T21:08:00.161Z,48.20
2023-03-13T21:11:03.962Z,47.70
2023-03-13T21:14:08.282Z,47.70
2023-03-13T21:17:15.264Z,48.60
2023-03-13T21:20:19.692Z,48.40
2023-03-13T21:23:22.677Z,49.40
2023-03-13T21:26:25.772Z,49.40
2023-03-13T21:29:28.782Z,50.20
2023-03-13T21:32:32.098Z,49.80
2023-03-13T21:35:35.151Z,51.00
2023-03-13T21:38:39.363Z,52.30
2023-03-13T21:41:42.451Z,51.80
2023-03-13T21:44:46.259Z,52.40
2023-03-13T21:47:49.153Z,53.30
2023-03-13T21:50:54.625Z,54.10
2023-03-13T21:53:57.783Z,52.90
2023-03-13T21:57:00.774Z,53.10
2023-03-13T22:00:06.545Z,53.30
2023-03-13T22:03:10.138Z,52.70
2023-03-13T22:06:19.880Z,53.60
2023-03-13T22:09:23.066Z,55.80
2023-03-13T22:12:26.770Z,54.30
2023-03-13T22:15:29.762Z,56.60
2023-03-13T22:18:33.056Z,56.40
2023-03-13T22:21:36.150Z,54.30
2023-03-13T22:24:39.549Z,52.70
2023-03-13T22:27:43.241Z,52.90
2023-03-13T22:30:46.549Z,53.60
2023-03-13T22:33:50.163Z,53.20
2023-03-13T22:36:53.342Z,54.70
2023-03-13T22:39:56.944Z,57.80
2023-03-13T22:43:00.242Z,59.60
2023-03-13T22:46:04.969Z,56.30
2023-03-13T22:49:07.959Z,53.90
2023-03-13T22:52:11.866Z,56.60
2023-03-13T22:55:14.848Z,57.40
2023-03-13T22:58:17.946Z,58.40
2023-03-13T23:01:23.204Z,58.20
2023-03-13T23:04:26.498Z,57.00
2023-03-13T23:07:30.825Z,55.70
2023-03-13T23:10:36.459Z,57.60
2023-03-13T23:13:40.072Z,58.70
2023-03-13T23:16:43.250Z,61.40
2023-03-13T23:19:46.345Z,60.10
2023-03-13T23:22:50.460Z,60.70
2023-03-13T23:25:53.441Z,61.00
2023-03-13T23:28:56.747Z,57.60
2023-03-13T23:31:59.736Z,57.40
2023-03-13T23:35:03.753Z,58.70
2023-03-13T23:38:06.318Z,55.80
2023-03-13T23:41:12.813Z,54.50
2023-03-13T23:44:15.786Z,53.70
2023-03-13T23:47:18.878Z,52.40
2023-03-13T23:50:23.089Z,53.40
2023-03-13T23:53:28.017Z,53.10
2023-03-13T23:56:34.800Z,53.50
2023-03-13T23:59:38.101Z,52.20
